Accueil
METAR-TAF:

METAR-TAF

Aéroports :

Aéroport international de Wattay

Vientiane, Laos

latitude: 17-57N, longitude: 102-34E, altitude: 171 m

Observation

Le bulletin a été fait il y a 10 minutes, à 23:00 UTC
Vent calme
Température 25°C
Humidité 100%
Pression 998 hPa
Visibilité: 4000 m
Nuages fragmentés à une hauteur de 1000 ft
Ciel couvert à une hauteur de 8300 ft
pluie

METAR: VLVT 162300Z 00000KT 4000 RA BKN010 OVC083 25/25 Q0998 NOSIG

Heure: 06:10 (23:10 UTC)

Prévision

Le bulletin a été fait il y a 6 heures et 10 minutes, à 17:00 UTC
Prévision valable du 16 à 18 UTC au 17 à 18 UTC
Vent 4 kt de ouest/sud-ouest
Visibilité: 3000 m
Nuages épars à une hauteur de 1300 ft
Nuages fragmentés à une hauteur de 4000 ft
Nuages fragmentés à une hauteur de 8300 ft
pluie

TAF: VLVT 161700Z 1618/1718 24004KT 3000 RA SCT013 BKN040 BKN083

Observations et prévisions météorologiques de plus de 4000 aéroports (messages METAR et TAF).

Les stations disponibles sont représentées par des disques jaunes et rouges sur la carte.

Passer la souris dessus pour voir le nom de la station.

Cliquer dessus pour voir les observations et prévisions météorologiques.

Pour changer de carte: cliquez sur les boutons verts avec une croix noire pour zoomer, sur le bouton vert avec un tiret pour effectuer un zoom arrière, ou sur les flèches vertes pour les cartes adjacentes.


METAR-TAF: